Información del aeropuerto KWVL

Información de pista
Pista 05 Longitud 5500 ft Anchura 100 ft
Elevación 268 ft Umbral 0 ft Rumbo 31
Pista 23 Longitud 5500 ft Anchura 100 ft
Elevación 333 ft Umbral 0 ft Rumbo 211
Pista 14 Longitud 2301 ft Anchura 150 ft
Elevación 308 ft Umbral 0 ft Rumbo 125
Pista 32 Longitud 2301 ft Anchura 150 ft
Elevación 299 ft Umbral 0 ft Rumbo 305
Frecuencias del aeropuerto
Tipo A/D Nombre PORTLAND A Frecuencia 124.25 MHZ
Tipo AWOS Nombre AWOS 3 Frecuencia 118.375 MHZ
Tipo CLD Nombre CLNC DEL Frecuencia 124.6 MHZ
Tipo UNIC Nombre CTAF/UNICO Frecuencia 122.7 MHZ
Radioayudas del aeropuerto
Información meteorológica del aeropuerto y NOTAM
ADDS - METARS form results

(2051 UTC 19 May 2022)
Data provider http://aviationweather.gov/metar/data/
 
METAR text: KWVL 191956Z AUTO 00000KT 10SM -RA SCT043 BKN050 OVC065 12/04 A2974 RMK AO2 RAB27 SLP099 P0000 T01170044
Conditions at: KWVL (WATERVILLE , ME, US) observed 1956 UTC 19 May 2022
Temperature: 11.7°C (53°F)
Dewpoint: 4.4°C (40°F) [RH = 61%]
Pressure (altimeter): 29.74 inches Hg (1007.2 mb)
[Sea-level pressure: 1009.9 mb]
Winds: calm
Visibility: 10 or more miles (16+ km)
Ceiling: 5000 feet AGL
Clouds: scattered clouds at 4300 feet AGL
broken clouds at 5000 feet AGL
overcast cloud deck at 6500 feet AGL
Weather: -RA  (light rain)